Time;durP1;ratioP1;P1;durP2;ratioP2;P2;SDS_P1;SDS_P2;PMS_P1;PMS_P2;Temp;Humidity;BMP_temperature;BMP_pressure;BME280_temperature;BME280_humidity;BME280_pressure;Samples;Min_cycle;Max_cycle;Signal;HPM_P1;HPM_P2
2021/01/05 00:00:34;;;;;;;13.80;10.90;;;5.20;35.70;;;;;;5013706;28;20776;-68
2021/01/05 00:03:00;;;;;;;11.83;10.53;;;5.10;35.80;;;;;;5015080;28;20188;-68
2021/01/05 00:05:25;;;;;;;11.27;10.13;;;5.10;36.00;;;;;;5013550;28;20229;-68
2021/01/05 00:07:51;;;;;;;11.20;9.97;;;5.20;36.20;;;;;;5013865;28;20174;-67
2021/01/05 00:10:18;;;;;;;11.93;10.60;;;5.10;36.00;;;;;;5013344;28;20228;-68
2021/01/05 00:12:43;;;;;;;12.93;10.13;;;5.10;36.10;;;;;;5013878;28;20843;-68
2021/01/05 00:15:10;;;;;;;11.20;10.10;;;5.10;36.80;;;;;;5016357;28;20443;-67
2021/01/05 00:17:36;;;;;;;11.93;10.47;;;5.00;36.80;;;;;;5014210;28;20550;-67
2021/01/05 00:20:08;;;;;;;12.93;11.50;;;5.10;37.00;;;;;;5013475;28;20417;-68
2021/01/05 00:22:33;;;;;;;12.17;10.87;;;5.20;36.70;;;;;;5013364;28;20212;-68
2021/01/05 00:24:59;;;;;;;14.30;11.80;;;5.20;36.70;;;;;;5014274;28;20492;-68
2021/01/05 00:27:24;;;;;;;13.63;11.30;;;5.10;36.70;;;;;;5014747;28;20261;-68
2021/01/05 00:29:50;;;;;;;12.90;11.17;;;5.10;36.80;;;;;;5013288;28;20173;-68
2021/01/05 00:32:19;;;;;;;13.87;11.23;;;5.10;37.60;;;;;;5013063;28;20201;-68
2021/01/05 00:34:45;;;;;;;13.00;11.70;;;5.10;37.40;;;;;;5013000;28;20189;-67
2021/01/05 00:37:13;;;;;;;14.30;12.77;;;5.10;37.50;;;;;;5012423;28;20896;-67
2021/01/05 00:39:38;;;;;;;12.83;11.37;;;5.20;37.30;;;;;;5012188;28;20478;-67
2021/01/05 00:42:04;;;;;;;13.60;11.87;;;5.10;37.40;;;;;;5012611;28;20412;-67
2021/01/05 00:44:30;;;;;;;14.10;11.43;;;5.10;37.50;;;;;;5011982;28;20243;-67
2021/01/05 00:46:56;;;;;;;13.67;12.07;;;5.10;37.60;;;;;;5012063;28;20411;-68
2021/01/05 00:49:22;;;;;;;14.37;11.70;;;5.10;37.40;;;;;;5011709;28;20181;-67
2021/01/05 00:51:47;;;;;;;12.43;10.73;;;5.10;38.10;;;;;;5012176;28;20874;-68
2021/01/05 00:54:13;;;;;;;16.57;12.67;;;5.10;38.10;;;;;;5011313;28;20189;-68
2021/01/05 00:56:38;;;;;;;14.50;11.50;;;5.10;38.10;;;;;;5014963;28;20173;-68
2021/01/05 00:59:04;;;;;;;16.10;11.90;;;5.10;38.30;;;;;;5013156;28;20255;-67
2021/01/05 01:01:30;;;;;;;14.07;11.53;;;5.20;38.20;;;;;;5015738;28;20183;-68
2021/01/05 01:03:55;;;;;;;15.67;12.97;;;5.10;38.00;;;;;;5011439;28;20193;-68
2021/01/05 01:06:21;;;;;;;12.67;11.03;;;5.00;38.10;;;;;;5011867;28;20170;-67
2021/01/05 01:08:46;;;;;;;14.77;12.17;;;5.00;38.50;;;;;;5011839;28;20641;-67
2021/01/05 01:11:12;;;;;;;15.70;12.40;;;5.00;38.50;;;;;;5011769;28;20193;-68
2021/01/05 01:13:39;;;;;;;16.27;13.67;;;5.00;38.50;;;;;;5012714;28;20634;-67
2021/01/05 01:16:05;;;;;;;15.27;12.60;;;5.10;38.50;;;;;;5012393;28;20469;-67
2021/01/05 01:18:31;;;;;;;12.80;11.50;;;5.10;38.50;;;;;;5013825;28;20404;-67
2021/01/05 01:20:56;;;;;;;13.83;12.30;;;5.10;38.50;;;;;;5013632;28;20487;-66
2021/01/05 01:23:22;;;;;;;13.63;12.00;;;4.90;38.80;;;;;;5016347;28;20961;-67
2021/01/05 01:25:48;;;;;;;13.93;12.10;;;4.90;39.00;;;;;;5013541;28;20688;-66
2021/01/05 01:28:14;;;;;;;15.23;12.50;;;4.90;39.10;;;;;;5010771;28;20648;-67
2021/01/05 01:30:39;;;;;;;13.47;12.07;;;5.00;40.80;;;;;;5011168;28;20411;-67
2021/01/05 01:33:06;;;;;;;17.93;13.63;;;5.00;38.50;;;;;;5010955;28;20177;-67
2021/01/05 01:35:32;;;;;;;16.70;12.23;;;5.00;38.50;;;;;;5011003;28;20272;-67
2021/01/05 01:37:57;;;;;;;16.00;12.07;;;5.00;39.80;;;;;;5010843;28;20508;-66
2021/01/05 01:40:36;;;;;;;14.27;12.10;;;4.90;39.10;;;;;;5010733;28;20249;-67
2021/01/05 01:43:02;;;;;;;17.43;12.30;;;4.80;39.40;;;;;;5011098;28;20636;-67
2021/01/05 01:45:30;;;;;;;16.40;13.70;;;4.90;39.60;;;;;;5011112;28;20795;-67
2021/01/05 01:47:56;;;;;;;14.60;12.10;;;4.80;39.50;;;;;;5010837;28;20408;-66
2021/01/05 01:50:26;;;;;;;15.60;12.10;;;4.90;39.50;;;;;;5011040;28;20416;-66
2021/01/05 01:53:11;;;;;;;16.27;12.83;;;5.00;39.40;;;;;;5010833;28;20989;-66
2021/01/05 01:55:48;;;;;;;14.70;11.67;;;4.80;39.60;;;;;;5010565;28;20454;-66
2021/01/05 01:58:53;;;;;;;14.30;12.50;;;5.00;39.60;;;;;;5010714;28;20400;-67
2021/01/05 02:01:33;;;;;;;18.77;13.13;;;5.00;39.20;;;;;;5010965;28;20412;-66
2021/01/05 02:04:37;;;;;;;17.20;12.37;;;5.00;39.00;;;;;;5010299;28;20436;-66
2021/01/05 02:07:35;;;;;;;16.73;13.50;;;4.70;40.30;;;;;;5013790;28;20519;-66
2021/01/05 02:10:16;;;;;;;13.63;11.13;;;4.90;39.90;;;;;;5014514;28;20419;-67
2021/01/05 02:13:00;;;;;;;18.07;13.07;;;5.10;39.20;;;;;;5014484;28;20467;-67
2021/01/05 02:15:38;;;;;;;15.10;11.90;;;5.00;39.20;;;;;;5014700;28;20420;-67
2021/01/05 02:18:22;;;;;;;15.73;12.70;;;5.10;39.40;;;;;;5014135;28;20785;-67
2021/01/05 02:20:53;;;;;;;17.03;12.33;;;5.10;39.30;;;;;;5014592;28;20402;-66
2021/01/05 02:24:01;;;;;;;14.73;12.90;;;5.10;39.20;;;;;;5014762;28;20468;-66
2021/01/05 02:27:03;;;;;;;15.73;12.30;;;5.10;39.30;;;;;;5014263;28;20903;-66
2021/01/05 02:29:35;;;;;;;20.03;14.37;;;5.20;38.70;;;;;;5011845;28;20420;-66
2021/01/05 02:32:16;;;;;;;17.17;13.70;;;5.10;38.70;;;;;;5014131;28;20950;-65
2021/01/05 02:34:59;;;;;;;16.40;13.40;;;5.00;39.20;;;;;;5014303;28;20510;-66
2021/01/05 02:37:43;;;;;;;19.27;12.83;;;5.10;39.50;;;;;;5013949;28;20472;-66
2021/01/05 02:40:32;;;;;;;14.63;13.13;;;5.00;39.60;;;;;;5013833;28;20910;-65
2021/01/05 02:43:15;;;;;;;19.17;14.57;;;5.10;39.60;;;;;;5014146;28;20411;-66
2021/01/05 02:46:09;;;;;;;16.00;12.80;;;5.10;39.00;;;;;;5013853;28;20416;-66
2021/01/05 02:49:02;;;;;;;16.30;12.00;;;5.10;39.30;;;;;;5013664;28;20400;-66
2021/01/05 02:51:46;;;;;;;16.60;13.03;;;5.30;39.10;;;;;;5014509;28;20462;-66
2021/01/05 02:54:15;;;;;;;17.20;13.67;;;5.30;38.70;;;;;;5014220;28;20424;-66
2021/01/05 02:56:58;;;;;;;17.93;14.00;;;5.20;39.60;;;;;;5014336;28;20415;-66
2021/01/05 03:00:09;;;;;;;14.17;11.20;;;5.20;39.00;;;;;;5014536;28;20447;-66
2021/01/05 03:03:13;;;;;;;15.47;12.80;;;5.00;39.70;;;;;;5013953;28;20482;-65
2021/01/05 03:05:47;;;;;;;15.10;13.47;;;5.00;40.10;;;;;;5013830;28;20434;-66
2021/01/05 03:08:15;;;;;;;16.50;12.20;;;4.80;40.50;;;;;;5013837;28;20412;-66
2021/01/05 03:10:49;;;;;;;18.13;13.27;;;4.80;40.80;;;;;;5013584;28;20471;-66
2021/01/05 03:13:24;;;;;;;16.50;13.50;;;4.80;40.70;;;;;;5013704;28;20416;-66
2021/01/05 03:16:20;;;;;;;18.47;13.63;;;4.60;40.60;;;;;;5013610;28;20415;-65
2021/01/05 03:19:09;;;;;;;18.03;14.20;;;4.80;41.00;;;;;;5012640;28;20436;-66
2021/01/05 03:21:40;;;;;;;20.27;15.10;;;4.90;40.70;;;;;;5013947;28;20470;-66
2021/01/05 03:24:08;;;;;;;20.00;14.17;;;4.80;41.10;;;;;;5013458;28;20466;-66
2021/01/05 03:26:43;;;;;;;18.50;14.70;;;5.00;40.70;;;;;;5014019;28;20765;-66
2021/01/05 03:29:09;;;;;;;18.43;14.07;;;5.20;40.40;;;;;;5013658;28;20412;-66
2021/01/05 03:31:47;;;;;;;19.70;14.77;;;5.10;40.10;;;;;;5013220;28;21023;-66
2021/01/05 03:34:13;;;;;;;18.83;13.80;;;5.00;40.30;;;;;;5013236;28;20439;-66
2021/01/05 03:36:39;;;;;;;16.37;13.70;;;5.10;40.60;;;;;;5013285;28;20404;-66
2021/01/05 03:39:05;;;;;;;16.50;13.83;;;5.00;40.80;;;;;;5012953;28;20417;-66
2021/01/05 03:41:32;;;;;;;19.30;15.57;;;5.20;40.60;;;;;;5013191;28;20739;-66
2021/01/05 03:43:57;;;;;;;23.97;17.20;;;5.20;40.40;;;;;;5012960;28;20428;-66
2021/01/05 03:46:26;;;;;;;21.43;16.20;;;5.10;40.60;;;;;;5012761;28;20427;-66
2021/01/05 03:48:52;;;;;;;24.03;16.70;;;5.20;40.50;;;;;;5012890;28;20177;-66
2021/01/05 03:51:17;;;;;;;22.20;16.80;;;5.20;40.20;;;;;;5012871;28;20919;-66
2021/01/05 03:53:43;;;;;;;19.97;16.57;;;5.00;40.60;;;;;;5012643;28;20423;-66
2021/01/05 03:56:08;;;;;;;18.53;14.67;;;5.00;41.30;;;;;;5012765;28;20173;-66
2021/01/05 03:58:34;;;;;;;21.47;16.33;;;5.10;41.00;;;;;;5012601;28;20174;-66
2021/01/05 04:01:00;;;;;;;20.90;16.57;;;5.10;40.80;;;;;;5012422;28;20181;-66
2021/01/05 04:03:26;;;;;;;19.03;15.53;;;4.90;41.60;;;;;;5012776;28;20664;-66
2021/01/05 04:05:51;;;;;;;16.67;14.63;;;4.90;41.00;;;;;;5012678;28;20475;-66
2021/01/05 04:08:17;;;;;;;17.70;14.00;;;4.70;41.90;;;;;;5012234;28;20261;-66
2021/01/05 04:10:43;;;;;;;16.87;13.87;;;4.70;42.00;;;;;;5012677;28;20209;-66
2021/01/05 04:13:08;;;;;;;17.63;14.73;;;4.80;42.80;;;;;;5012443;28;20201;-66
2021/01/05 04:15:34;;;;;;;17.83;14.73;;;4.70;42.40;;;;;;5012312;28;20193;-66
2021/01/05 04:18:00;;;;;;;21.80;16.57;;;4.70;42.50;;;;;;5012432;28;20173;-66
2021/01/05 04:20:28;;;;;;;18.50;15.10;;;5.00;42.30;;;;;;5012529;28;20178;-66
2021/01/05 04:22:54;;;;;;;18.10;14.13;;;5.20;41.80;;;;;;5012476;28;20419;-65
2021/01/05 04:25:20;;;;;;;17.43;14.47;;;5.20;41.40;;;;;;5012406;28;20482;-66
2021/01/05 04:27:47;;;;;;;17.30;13.70;;;5.20;41.90;;;;;;5012171;28;20412;-66
2021/01/05 04:30:40;;;;;;;19.77;15.43;;;5.20;41.50;;;;;;5011985;28;21131;-66
2021/01/05 04:33:11;;;;;;;17.00;15.30;;;5.40;41.40;;;;;;5012154;28;20544;-65
2021/01/05 04:35:38;;;;;;;17.27;14.93;;;5.30;40.80;;;;;;5011885;28;21137;-66
2021/01/05 04:38:05;;;;;;;18.33;15.97;;;5.20;41.80;;;;;;5011608;28;20439;-66
2021/01/05 04:40:40;;;;;;;25.57;15.80;;;5.40;41.40;;;;;;5011856;28;20412;-66
2021/01/05 04:43:25;;;;;;;17.00;14.70;;;5.40;40.80;;;;;;5011907;28;20404;-66
2021/01/05 04:46:19;;;;;;;19.70;15.57;;;5.20;41.80;;;;;;5014214;28;20440;-65
2021/01/05 04:49:13;;;;;;;19.93;15.00;;;5.00;42.00;;;;;;5013712;28;20511;-66
2021/01/05 04:51:49;;;;;;;19.47;16.17;;;5.00;43.40;;;;;;5012592;28;20459;-66
2021/01/05 04:54:25;;;;;;;18.77;15.80;;;5.30;42.60;;;;;;5012243;28;20424;-67
2021/01/05 04:57:10;;;;;;;19.80;15.17;;;5.40;41.90;;;;;;5012636;28;20413;-66
2021/01/05 04:59:48;;;;;;;20.47;15.07;;;5.50;41.90;;;;;;5012387;28;20452;-64
2021/01/05 05:02:29;;;;;;;16.07;14.33;;;5.20;41.60;;;;;;5012203;28;20945;-65
2021/01/05 05:05:15;;;;;;;19.93;15.00;;;5.30;42.40;;;;;;5012166;28;20433;-66
2021/01/05 05:08:18;;;;;;;18.40;15.33;;;5.10;43.10;;;;;;5011984;28;20416;-66
2021/01/05 05:10:56;;;;;;;19.23;15.17;;;5.10;43.50;;;;;;5012278;28;20506;-66
2021/01/05 05:13:29;;;;;;;18.57;15.73;;;5.30;43.20;;;;;;5012129;28;20802;-66
2021/01/05 05:16:07;;;;;;;19.47;15.53;;;5.10;43.60;;;;;;5011910;28;20463;-66
2021/01/05 05:18:49;;;;;;;19.10;15.47;;;4.90;44.70;;;;;;5012022;28;20408;-66
2021/01/05 05:21:40;;;;;;;18.00;14.53;;;4.90;45.10;;;;;;5011835;28;20786;-66
2021/01/05 05:24:54;;;;;;;17.40;14.73;;;4.80;45.60;;;;;;5011488;28;20509;-66
2021/01/05 05:28:02;;;;;;;17.70;14.97;;;5.20;44.60;;;;;;4950876;29;20550;-66
2021/01/05 05:30:41;;;;;;;18.33;14.90;;;5.50;44.20;;;;;;4920420;29;20535;-66
2021/01/05 05:33:31;;;;;;;17.67;14.30;;;5.60;43.00;;;;;;5003778;28;20533;-62
2021/01/05 05:36:34;;;;;;;19.07;16.50;;;5.60;43.00;;;;;;5014345;28;20428;-65
2021/01/05 05:39:13;;;;;;;22.40;18.43;;;5.40;43.50;;;;;;5011711;28;20486;-64
2021/01/05 05:42:16;;;;;;;18.23;14.90;;;5.30;44.60;;;;;;5011897;28;20426;-65
2021/01/05 05:44:54;;;;;;;20.27;16.43;;;5.40;44.60;;;;;;5013298;28;20823;-64
2021/01/05 05:47:36;;;;;;;18.27;15.00;;;5.40;44.30;;;;;;5013060;28;20489;-65
2021/01/05 05:50:22;;;;;;;18.30;14.43;;;5.60;43.90;;;;;;5012011;28;20417;-64
2021/01/05 05:53:04;;;;;;;19.00;17.00;;;5.40;43.50;;;;;;5011760;28;20875;-65
2021/01/05 05:55:38;;;;;;;20.20;15.50;;;5.80;43.20;;;;;;5011994;28;20429;-65
2021/01/05 05:58:05;;;;;;;18.40;15.77;;;5.80;42.20;;;;;;5011627;28;20518;-65
2021/01/05 06:00:40;;;;;;;19.63;15.93;;;5.80;42.60;;;;;;5011763;28;20435;-65
2021/01/05 06:03:10;;;;;;;30.27;15.20;;;5.60;42.80;;;;;;5011771;28;20416;-65
2021/01/05 06:05:37;;;;;;;20.37;15.60;;;5.50;43.70;;;;;;5011314;28;20435;-65
2021/01/05 06:08:05;;;;;;;16.47;14.70;;;5.80;43.30;;;;;;5010404;28;20423;-64
2021/01/05 06:10:31;;;;;;;19.13;14.80;;;5.80;42.70;;;;;;5011865;28;20514;-64
2021/01/05 06:12:57;;;;;;;18.83;15.00;;;5.90;43.00;;;;;;5011489;28;20519;-65
2021/01/05 06:15:23;;;;;;;17.63;15.57;;;5.70;42.30;;;;;;5011349;28;20205;-65
2021/01/05 06:17:49;;;;;;;18.47;15.50;;;5.80;42.80;;;;;;5011257;28;20763;-64
2021/01/05 06:20:15;;;;;;;17.60;15.70;;;5.80;42.80;;;;;;5011646;28;20184;-64
2021/01/05 06:22:41;;;;;;;18.70;14.10;;;5.30;43.40;;;;;;5011059;28;20477;-63
2021/01/05 06:25:08;;;;;;;16.13;14.43;;;5.20;44.30;;;;;;5011038;28;20955;-65
2021/01/05 06:27:34;;;;;;;21.30;15.27;;;5.00;44.70;;;;;;5011010;28;20178;-65
2021/01/05 06:29:59;;;;;;;18.77;14.67;;;5.40;44.80;;;;;;5010667;28;20475;-63
2021/01/05 06:32:25;;;;;;;19.77;15.70;;;5.70;43.50;;;;;;5010983;28;20222;-65
2021/01/05 06:34:51;;;;;;;18.67;15.47;;;5.80;43.80;;;;;;5010801;28;20682;-65
2021/01/05 06:37:17;;;;;;;18.73;15.53;;;6.10;42.60;;;;;;5011433;28;20640;-66
2021/01/05 06:39:43;;;;;;;19.10;15.80;;;5.90;42.50;;;;;;5010733;28;20176;-65
2021/01/05 06:42:08;;;;;;;19.17;17.17;;;5.60;42.90;;;;;;5011000;28;20502;-65
2021/01/05 06:44:34;;;;;;;21.47;16.17;;;5.40;44.20;;;;;;5010623;28;21165;-64
2021/01/05 06:47:00;;;;;;;22.20;16.63;;;5.50;44.00;;;;;;5009843;28;20178;-67
2021/01/05 06:49:28;;;;;;;22.10;16.03;;;5.30;44.10;;;;;;5009829;28;20279;-66
2021/01/05 06:51:54;;;;;;;18.20;16.30;;;5.40;45.00;;;;;;5011205;28;20587;-66
2021/01/05 06:54:20;;;;;;;19.30;15.60;;;5.50;43.80;;;;;;5013808;28;20427;-65
2021/01/05 06:56:53;;;;;;;19.23;14.70;;;5.50;43.80;;;;;;5013850;28;20414;-66
2021/01/05 06:59:19;;;;;;;16.27;12.47;;;5.60;51.30;;;;;;5013558;28;20213;-65
2021/01/05 07:01:57;;;;;;;23.93;15.57;;;5.90;53.00;;;;;;5013792;28;20417;-65
2021/01/05 07:04:24;;;;;;;16.30;14.53;;;5.90;52.50;;;;;;5013973;28;20432;-65
2021/01/05 07:06:49;;;;;;;17.30;13.27;;;6.30;48.40;;;;;;5013455;28;20412;-65
2021/01/05 07:09:17;;;;;;;20.17;16.47;;;6.60;46.90;;;;;;5013536;28;20425;-65
2021/01/05 07:11:43;;;;;;;17.37;14.30;;;6.70;47.50;;;;;;5013612;28;20208;-65
2021/01/05 07:14:10;;;;;;;18.40;14.70;;;6.40;42.50;;;;;;5013208;28;20538;-63
2021/01/05 07:16:35;;;;;;;20.17;16.00;;;6.30;42.50;;;;;;5013357;28;20424;-65
2021/01/05 07:19:01;;;;;;;19.80;15.67;;;6.50;42.20;;;;;;5013346;28;20465;-64
2021/01/05 07:21:26;;;;;;;19.00;16.40;;;6.50;41.70;;;;;;5013175;28;20175;-65
2021/01/05 07:23:52;;;;;;;16.37;14.67;;;6.20;42.80;;;;;;5013190;28;20189;-65
2021/01/05 07:26:18;;;;;;;17.30;15.13;;;6.30;42.00;;;;;;5013273;28;20604;-65
2021/01/05 07:28:44;;;;;;;18.77;15.67;;;6.20;42.40;;;;;;5012852;28;20256;-66
2021/01/05 07:31:10;;;;;;;18.07;16.17;;;6.30;42.40;;;;;;5011082;28;20419;-65
2021/01/05 07:33:37;;;;;;;18.90;15.53;;;6.30;42.40;;;;;;5012568;28;20184;-67
2021/01/05 07:36:07;;;;;;;16.83;14.50;;;6.20;42.40;;;;;;5012984;28;20403;-66
2021/01/05 07:38:33;;;;;;;16.67;14.70;;;6.20;42.10;;;;;;5012835;28;20430;-65
2021/01/05 07:40:58;;;;;;;17.00;15.30;;;6.20;42.50;;;;;;5012981;28;20487;-67
2021/01/05 07:43:23;;;;;;;16.20;14.60;;;6.10;43.00;;;;;;5012696;28;20631;-67
2021/01/05 07:45:49;;;;;;;17.97;15.03;;;5.80;43.70;;;;;;5012694;28;20196;-65
2021/01/05 07:48:15;;;;;;;16.97;13.80;;;5.80;44.10;;;;;;5012720;28;20252;-66
2021/01/05 07:50:40;;;;;;;17.40;14.07;;;5.90;43.90;;;;;;5012493;28;20185;-67
2021/01/05 07:53:06;;;;;;;15.97;13.80;;;5.80;43.60;;;;;;5012731;28;20579;-67
2021/01/05 07:55:33;;;;;;;15.37;13.60;;;5.90;43.50;;;;;;5012738;28;20203;-68
2021/01/05 07:57:59;;;;;;;14.97;13.37;;;6.00;43.80;;;;;;5012001;28;20166;-67
2021/01/05 08:00:27;;;;;;;15.10;13.13;;;6.10;42.90;;;;;;5012473;28;20424;-66
2021/01/05 08:02:54;;;;;;;16.10;14.17;;;6.10;43.70;;;;;;5012220;28;20431;-66
2021/01/05 08:05:21;;;;;;;15.60;12.60;;;6.20;43.00;;;;;;5011884;28;20436;-66
2021/01/05 08:07:47;;;;;;;16.10;14.47;;;6.20;43.30;;;;;;5012203;28;20773;-65
2021/01/05 08:10:35;;;;;;;17.50;14.10;;;6.10;43.10;;;;;;5012289;28;20924;-64
2021/01/05 08:13:02;;;;;;;14.87;13.20;;;6.10;43.50;;;;;;5011892;28;20575;-64
2021/01/05 08:15:31;;;;;;;14.23;12.83;;;6.10;43.70;;;;;;5012174;28;20431;-63
2021/01/05 08:17:59;;;;;;;13.63;12.23;;;6.00;44.10;;;;;;5012100;28;20416;-64
2021/01/05 08:20:27;;;;;;;14.43;12.90;;;6.00;43.80;;;;;;5012063;28;20415;-65
2021/01/05 08:22:53;;;;;;;15.97;13.73;;;6.00;44.60;;;;;;5012255;28;20423;-64
2021/01/05 08:25:20;;;;;;;15.23;13.33;;;6.00;43.80;;;;;;5011905;28;20466;-64
2021/01/05 08:27:48;;;;;;;16.47;14.13;;;6.00;43.60;;;;;;5012068;28;20482;-65
2021/01/05 08:30:15;;;;;;;15.77;14.17;;;6.00;43.90;;;;;;5011941;28;20419;-64
2021/01/05 08:32:41;;;;;;;14.27;12.73;;;5.90;44.40;;;;;;5011939;28;20459;-64
2021/01/05 08:35:07;;;;;;;14.67;13.27;;;5.80;45.10;;;;;;5011694;28;20439;-65
2021/01/05 08:37:36;;;;;;;14.73;13.27;;;5.90;45.20;;;;;;5011619;28;20184;-65
2021/01/05 08:40:05;;;;;;;16.83;14.30;;;6.10;44.80;;;;;;5011850;28;20413;-64
2021/01/05 08:42:30;;;;;;;13.20;11.83;;;6.00;44.80;;;;;;5011607;28;20416;-64
2021/01/05 08:44:56;;;;;;;15.73;13.20;;;6.10;44.40;;;;;;5011788;28;20450;-64
2021/01/05 08:47:21;;;;;;;12.83;11.53;;;5.80;45.00;;;;;;5011627;28;20182;-67
2021/01/05 08:49:47;;;;;;;13.70;12.30;;;5.90;45.10;;;;;;5011537;28;20817;-65
2021/01/05 08:52:12;;;;;;;13.43;12.13;;;5.70;45.10;;;;;;5011620;28;20226;-65
2021/01/05 08:54:38;;;;;;;15.13;12.50;;;5.80;45.30;;;;;;5011472;28;20593;-65
2021/01/05 08:57:04;;;;;;;14.40;12.90;;;6.00;44.70;;;;;;5011393;28;20252;-66
2021/01/05 08:59:30;;;;;;;13.70;11.57;;;6.00;44.50;;;;;;5011575;28;20536;-65
2021/01/05 09:01:55;;;;;;;15.23;13.83;;;6.10;44.30;;;;;;5011870;28;20407;-65
2021/01/05 09:04:21;;;;;;;14.33;12.83;;;6.00;44.20;;;;;;5011433;28;20287;-65
2021/01/05 09:06:54;;;;;;;14.43;12.30;;;6.10;44.20;;;;;;5011391;28;20194;-65
2021/01/05 09:09:19;;;;;;;15.07;13.57;;;5.90;44.20;;;;;;5011349;28;20266;-65
2021/01/05 09:11:51;;;;;;;14.30;12.80;;;5.80;44.50;;;;;;5010575;28;20543;-66
2021/01/05 09:14:16;;;;;;;15.80;13.53;;;5.90;45.40;;;;;;5007641;28;20207;-64
2021/01/05 09:16:42;;;;;;;14.30;12.83;;;5.90;45.20;;;;;;5009176;28;20501;-65
2021/01/05 09:19:07;;;;;;;13.50;12.10;;;6.00;45.60;;;;;;5009558;28;20181;-66
2021/01/05 09:21:33;;;;;;;14.27;12.77;;;6.00;45.70;;;;;;5010443;28;20270;-65
2021/01/05 09:23:59;;;;;;;14.20;12.80;;;6.10;44.80;;;;;;5010639;28;20215;-65
2021/01/05 09:26:30;;;;;;;14.87;13.10;;;6.10;45.60;;;;;;5010783;28;20713;-66
2021/01/05 09:28:56;;;;;;;14.00;12.60;;;6.00;44.60;;;;;;5009347;28;20714;-65
2021/01/05 09:31:22;;;;;;;15.00;13.20;;;6.10;44.30;;;;;;5009663;28;20550;-65
2021/01/05 09:33:48;;;;;;;17.90;13.40;;;6.10;44.50;;;;;;5009466;28;20507;-65
2021/01/05 09:36:15;;;;;;;13.00;11.77;;;6.10;44.20;;;;;;5006938;28;20438;-66
2021/01/05 09:38:42;;;;;;;16.27;13.77;;;5.90;44.20;;;;;;5009629;28;20416;-67
2021/01/05 09:41:19;;;;;;;13.67;12.30;;;5.90;44.10;;;;;;5009650;28;20410;-64
2021/01/05 09:43:44;;;;;;;16.40;14.70;;;6.00;44.40;;;;;;5008500;28;20411;-64
2021/01/05 09:46:11;;;;;;;13.93;12.43;;;6.00;44.70;;;;;;5009585;28;20772;-65
2021/01/05 09:48:36;;;;;;;14.40;12.73;;;6.10;44.90;;;;;;5009279;28;20267;-65
2021/01/05 09:51:02;;;;;;;17.87;15.60;;;6.10;44.50;;;;;;5009583;28;20503;-66
2021/01/05 09:53:28;;;;;;;15.53;13.90;;;6.10;45.10;;;;;;5009585;28;20571;-64
2021/01/05 09:55:53;;;;;;;14.00;12.50;;;6.00;44.30;;;;;;5009228;28;20241;-64
2021/01/05 09:58:19;;;;;;;16.47;14.33;;;6.00;44.60;;;;;;5009351;28;20699;-65
2021/01/05 10:00:44;;;;;;;17.37;13.97;;;6.10;45.10;;;;;;5009487;28;20183;-65
2021/01/05 10:03:10;;;;;;;15.07;13.43;;;6.20;45.10;;;;;;5008854;28;20694;-64
2021/01/05 10:05:35;;;;;;;17.30;13.47;;;6.20;45.20;;;;;;5009568;28;20662;-64
2021/01/05 10:08:01;;;;;;;17.03;13.27;;;6.30;44.50;;;;;;5010342;28;20177;-64
2021/01/05 10:10:27;;;;;;;15.30;13.80;;;6.30;43.90;;;;;;5010601;28;20184;-65
2021/01/05 10:12:53;;;;;;;16.40;14.57;;;6.10;44.00;;;;;;5010592;28;20201;-65
2021/01/05 10:15:21;;;;;;;15.27;13.63;;;6.00;44.50;;;;;;5010586;28;20423;-65
2021/01/05 10:17:47;;;;;;;17.83;14.43;;;6.00;44.40;;;;;;5010420;28;20482;-65
2021/01/05 10:20:15;;;;;;;16.83;14.30;;;6.10;44.70;;;;;;5010609;28;21089;-65
2021/01/05 10:22:40;;;;;;;16.23;13.10;;;6.20;44.50;;;;;;5010211;28;20656;-67
2021/01/05 10:25:09;;;;;;;17.67;14.70;;;6.20;44.30;;;;;;5010099;28;20454;-65
2021/01/05 10:27:34;;;;;;;16.17;13.60;;;6.20;44.40;;;;;;5011998;28;20208;-64
2021/01/05 10:30:00;;;;;;;16.03;13.73;;;6.30;44.10;;;;;;5014262;28;20462;-65
2021/01/05 10:32:25;;;;;;;16.33;14.60;;;6.30;43.80;;;;;;5014010;28;20207;-65
2021/01/05 10:34:51;;;;;;;15.00;13.43;;;6.30;43.80;;;;;;5013900;28;20249;-65
2021/01/05 10:37:16;;;;;;;17.80;13.13;;;6.30;44.20;;;;;;5013959;28;20172;-65
2021/01/05 10:39:42;;;;;;;14.50;12.97;;;6.40;43.90;;;;;;5014124;28;20165;-66
2021/01/05 10:42:08;;;;;;;17.60;14.87;;;6.40;44.00;;;;;;5013822;28;20200;-65
2021/01/05 10:44:34;;;;;;;15.53;13.93;;;6.50;43.90;;;;;;5014085;28;20201;-65
2021/01/05 10:47:01;;;;;;;16.50;14.70;;;6.30;43.50;;;;;;5013950;28;20205;-66
2021/01/05 10:49:27;;;;;;;16.90;14.17;;;6.30;43.90;;;;;;5013615;28;20184;-64
2021/01/05 10:51:55;;;;;;;18.77;14.90;;;6.30;44.20;;;;;;5013918;28;20549;-65
2021/01/05 10:54:22;;;;;;;16.67;14.10;;;6.20;44.10;;;;;;5013833;28;20188;-66
2021/01/05 10:56:58;;;;;;;16.53;13.27;;;6.20;44.40;;;;;;5013694;28;20438;-65
2021/01/05 10:59:25;;;;;;;16.10;14.40;;;6.20;44.10;;;;;;5013315;28;20445;-65
2021/01/05 11:01:51;;;;;;;16.97;14.33;;;6.20;44.50;;;;;;5013625;28;20481;-66
2021/01/05 11:04:16;;;;;;;15.77;13.50;;;6.30;45.00;;;;;;5013467;28;20434;-66
2021/01/05 11:06:55;;;;;;;19.77;14.47;;;6.30;44.10;;;;;;5013480;28;20418;-66
2021/01/05 11:09:22;;;;;;;16.50;13.43;;;6.20;44.60;;;;;;5013645;28;20180;-65
2021/01/05 11:11:54;;;;;;;16.37;14.00;;;6.10;44.30;;;;;;5013481;28;20455;-66
2021/01/05 11:14:20;;;;;;;17.20;15.03;;;6.00;45.50;;;;;;5013229;28;20435;-63
2021/01/05 11:16:47;;;;;;;17.30;14.63;;;6.10;44.70;;;;;;5013286;28;20462;-65
2021/01/05 11:19:13;;;;;;;20.00;16.50;;;6.10;44.40;;;;;;5013286;28;20181;-67
2021/01/05 11:21:38;;;;;;;16.70;14.63;;;6.20;44.40;;;;;;5013265;28;20415;-66
2021/01/05 11:24:04;;;;;;;15.40;13.80;;;6.30;44.20;;;;;;5013146;28;20262;-67
2021/01/05 11:26:35;;;;;;;16.53;14.17;;;6.10;44.30;;;;;;5012831;28;20825;-67
2021/01/05 11:29:00;;;;;;;17.93;14.43;;;6.00;44.20;;;;;;5013121;28;20415;-67
2021/01/05 11:31:26;;;;;;;16.60;14.63;;;6.10;44.40;;;;;;5013508;28;20969;-64
2021/01/05 11:33:51;;;;;;;16.77;14.53;;;6.20;44.70;;;;;;5013322;28;20168;-65
2021/01/05 11:36:28;;;;;;;16.03;14.33;;;6.20;44.40;;;;;;5013658;28;20527;-65
2021/01/05 11:38:55;;;;;;;15.37;13.77;;;6.20;44.30;;;;;;5011996;28;20260;-65
2021/01/05 11:41:30;;;;;;;16.27;14.57;;;6.20;44.40;;;;;;5012903;28;20434;-64
2021/01/05 11:43:56;;;;;;;20.80;15.63;;;6.00;44.30;;;;;;5012941;28;20430;-65
2021/01/05 11:46:22;;;;;;;18.23;14.47;;;5.90;45.00;;;;;;5013087;28;20454;-65
2021/01/05 11:48:48;;;;;;;17.20;14.27;;;6.00;44.70;;;;;;5012939;28;20420;-67
2021/01/05 11:51:27;;;;;;;16.83;14.13;;;6.20;44.80;;;;;;5012762;28;20173;-65
2021/01/05 11:53:53;;;;;;;16.60;13.83;;;6.20;44.00;;;;;;5012777;28;20403;-65
2021/01/05 11:56:23;;;;;;;16.60;14.90;;;6.20;44.10;;;;;;5012349;28;20768;-64
2021/01/05 11:58:48;;;;;;;16.57;13.57;;;6.20;44.40;;;;;;5012650;28;20174;-65
2021/01/05 12:01:14;;;;;;;16.37;13.57;;;6.10;44.30;;;;;;5016663;28;20426;-64
2021/01/05 12:03:40;;;;;;;17.80;14.30;;;6.40;43.90;;;;;;5032150;28;20406;-65
2021/01/05 12:06:11;;;;;;;15.37;13.40;;;6.30;43.30;;;;;;5032225;28;20180;-64
2021/01/05 12:08:36;;;;;;;16.23;13.47;;;6.20;44.00;;;;;;5032236;28;20242;-64
2021/01/05 12:11:02;;;;;;;16.20;14.07;;;6.20;44.30;;;;;;5032046;28;20481;-65
2021/01/05 12:13:27;;;;;;;14.70;13.20;;;6.00;44.60;;;;;;5023818;28;20828;-66
2021/01/05 12:15:53;;;;;;;16.00;14.30;;;6.10;44.90;;;;;;5012163;28;20767;-66
2021/01/05 12:18:18;;;;;;;15.03;13.50;;;6.20;44.40;;;;;;5011829;28;20177;-67
2021/01/05 12:20:44;;;;;;;14.93;12.03;;;6.50;55.90;;;;;;5011796;28;20596;-68
2021/01/05 12:23:09;;;;;;;17.53;13.93;;;7.50;59.80;;;;;;5012210;28;20255;-67
2021/01/05 12:25:35;;;;;;;17.50;15.10;;;8.10;46.00;;;;;;5011717;28;20215;-66
2021/01/05 12:28:00;;;;;;;16.07;13.73;;;7.30;41.10;;;;;;5012004;28;20176;-65
2021/01/05 12:30:26;;;;;;;14.83;13.33;;;6.70;42.70;;;;;;5011941;28;20184;-65
2021/01/05 12:32:51;;;;;;;15.70;12.50;;;6.60;43.00;;;;;;5011767;28;20236;-65
2021/01/05 12:35:17;;;;;;;16.87;14.00;;;6.50;44.10;;;;;;5011766;28;20196;-65
2021/01/05 12:37:42;;;;;;;15.07;13.50;;;6.50;44.20;;;;;;5011971;28;20176;-65
2021/01/05 12:40:08;;;;;;;18.53;14.80;;;6.50;43.70;;;;;;5011443;28;20778;-68
2021/01/05 12:42:34;;;;;;;17.73;14.10;;;6.40;43.80;;;;;;5012005;28;20173;-65
2021/01/05 12:44:59;;;;;;;14.93;13.43;;;6.40;44.10;;;;;;5011818;28;21157;-67
2021/01/05 12:47:27;;;;;;;15.90;14.30;;;6.30;44.40;;;;;;5011352;28;20180;-67
2021/01/05 12:49:53;;;;;;;15.27;13.50;;;6.50;43.80;;;;;;5011478;28;20692;-65
2021/01/05 12:52:19;;;;;;;18.67;15.30;;;6.60;43.70;;;;;;5011679;28;20467;-65